Flight Track Log - Related Links

Times and Time Zones

All times are in EDT time to prevent confusion due to time zone crossing. See the SKW6492 flight status page for this flight to view local times or setup timezone preferences in your user account.

Time Position Orientation Groundspeed Altitude Reporting Facility
EDT Latitude Longitude Course Direction KTS MPH feet Rate Location/Type
Thu 09:47:54 PM 39.8833 -104.5833 346° North 195 224 6,800  Level Denver TRACON
Thu 09:49:00 PM 39.9000 -104.5000 75° East 243 280 9,000 2,143 Climbing Denver TRACON
Thu 09:50:00 PM 39.9333 -104.4167 62° Northeast 265 305 11,300 2,368 Climbing Denver TRACON
Thu 09:50:54 PM 39.9833 -104.4333 346° North 230 265 13,500 2,294 Climbing Denver TRACON
Thu 09:52:00 PM 40.3578 -104.8304 346° North  Level FlightAware Approximate
Thu 09:52:16 PM 40.0614 -104.4925 330° Northwest 232 267 16,500  Level Denver Center
Thu 09:53:00 PM 40.4594 -104.8642 346° North  Level FlightAware Approximate
Thu 09:53:18 PM 40.1219 -104.5314 334° Northwest 243 280 17,900  Level Denver Center
Thu 09:54:20 PM 40.2061 -104.5744 339° North 314 361 18,500 1,113 Climbing Denver Center
Thu 09:55:22 PM 40.2897 -104.6147 340° North 321 369 20,200 1,610 Climbing Denver Center
Thu 09:56:23 PM 40.3769 -104.6564 340° North 334 384 21,800 1,366 Climbing Denver Center
Thu 09:57:25 PM 40.4686 -104.7006 340° North 328 377 23,000 1,059 Climbing Denver Center
Thu 09:58:39 PM 40.5747 -104.7508 340° North 348 400 24,200 882 Climbing Denver Center
Thu 09:59:41 PM 40.6594 -104.8136 331° Northwest 351 404 25,000 774 Climbing Denver Center
Thu 10:00:43 PM 40.7375 -104.8983 321° Northwest 364 419 25,800 878 Climbing Denver Center
Thu 10:01:44 PM 40.8339 -104.9953 323° Northwest 368 423 26,800 1,024 Climbing Denver Center
Thu 10:02:46 PM 40.9150 -105.0833 321° Northwest 377 434 27,900 581 Climbing Denver Center
Thu 10:03:48 PM 40.9978 -105.1683 322° Northwest 380 437 28,000 48 Climbing Denver Center
Thu 10:04:50 PM 41.0822 -105.2586 321° Northwest 393 452 28,000  Level Denver Center
Thu 10:05:52 PM 41.1833 -105.3653 322° Northwest 412 474 28,000  Level Denver Center
Thu 10:06:53 PM 41.2706 -105.4575 322° Northwest 416 479 28,000  Level Denver Center
Thu 10:07:55 PM 41.3728 -105.5708 320° Northwest 425 489 28,000  Level Denver Center
Thu 10:08:57 PM 41.4617 -105.6661 321° Northwest 427 491 28,000  Level Denver Center
Thu 10:09:59 PM 41.5494 -105.7603 321° Northwest 425 489 28,000  Level Denver Center
Thu 10:11:01 PM 41.6519 -105.8728 321° Northwest 427 491 28,000  Level Denver Center
Thu 10:12:02 PM 41.7414 -105.9694 321° Northwest 430 495 28,000  Level Denver Center
Thu 10:13:04 PM 41.8461 -106.0839 321° Northwest 431 496 28,000  Level Denver Center
Thu 10:14:06 PM 41.9350 -106.1808 321° Northwest 431 496 28,000  Level Denver Center
Thu 10:15:08 PM 42.0389 -106.2961 321° Northwest 434 499 28,000  Level Denver Center
Thu 10:16:09 PM 42.1278 -106.3936 321° Northwest 431 496 28,000  Level Denver Center
Thu 10:17:11 PM 42.2167 -106.4925 321° Northwest 430 495 28,000  Level Denver Center
Thu 10:18:13 PM 42.3222 -106.6100 321° Northwest 429 494 28,000  Level Denver Center
Thu 10:19:14 PM 42.3931 -106.6897 320° Northwest 430 495 28,000  Level Denver Center
Thu 10:20:16 PM 42.5094 -106.8208 320° Northwest 426 490 28,000  Level Denver Center
Thu 10:21:18 PM 42.5986 -106.9214 320° Northwest 426 490 28,000  Level Denver Center
Thu 10:22:20 PM 42.6992 -107.0356 320° Northwest 428 493 28,000  Level Denver Center
Thu 10:23:22 PM 42.7872 -107.1358 320° Northwest 430 495 28,000  Level Denver Center
Thu 10:24:36 PM 42.8756 -107.2369 320° Northwest 429 494 28,000 -353 Level Denver Center
Thu 10:25:38 PM 42.9886 -107.3706 319° Northwest 426 490 27,200 -1,210 Descending Denver Center
Thu 10:26:40 PM 43.0919 -107.4878 320° Northwest 428 493 25,500 -1,561 Descending Denver Center
Thu 10:27:41 PM 43.1797 -107.5886 320° Northwest 429 494 24,000 -1,597 Descending Denver Center
Thu 10:28:44 PM 43.2661 -107.6900 319° Northwest 429 494 22,200 -1,984 Descending Denver Center
Thu 10:29:45 PM 43.3644 -107.8047 320° Northwest 425 489 19,900 -1,854 Descending Denver Center
Thu 10:30:47 PM 43.4464 -107.9019 319° Northwest 419 482 18,400 -1,191 Descending Denver Center
Thu 10:32:01 PM 43.5514 -108.0253 320° Northwest 397 457 17,200 -1,015 Descending Salt Lake Center
Thu 10:33:03 PM 43.6428 -108.1339 319° Northwest 391 450 16,100 -780 Descending Salt Lake Center
Thu 10:34:04 PM 43.7236 -108.2317 319° Northwest 391 450 15,600 -492 Descending Salt Lake Center
Thu 10:36:00 PM 43.8844 -108.3826 327° Northwest  Level FlightAware Approximate
Thu 10:43:00 PM 44.4571 -108.9571 324° Northwest  Level FlightAware Approximate
Thu 10:44:00 PM 44.5167 -109.0167 325° Northwest  Level FlightAware Approximate
Thu 10:45:00 PM 44.5202 -109.0238 325° Northwest  Level Estimated
Thu 10:46:00 PM 44.5167 -109.0167 325° Northwest  Level FlightAware Approximate
Thu 10:47:00 PM 44.5202 -109.0238 325° Northwest  Level Estimated

Login

Don't have an account? Register now (free) for customized features, flight alerts, and more!